sensor_id;sensor_type;location;lat;lon;timestamp;P1;durP1;ratioP1;P2;durP2;ratioP2
47960;SDS011;33721;48.852;9.936;2023-03-11T00:00:57;3.72;;;1.50;;
47960;SDS011;33721;48.852;9.936;2023-03-11T00:03:23;2.97;;;1.40;;
47960;SDS011;33721;48.852;9.936;2023-03-11T00:05:49;2.88;;;1.33;;
47960;SDS011;33721;48.852;9.936;2023-03-11T00:08:17;4.25;;;1.33;;
47960;SDS011;33721;48.852;9.936;2023-03-11T00:10:46;2.63;;;1.27;;
47960;SDS011;33721;48.852;9.936;2023-03-11T00:13:13;5.25;;;1.73;;
47960;SDS011;33721;48.852;9.936;2023-03-11T00:15:40;2.97;;;1.48;;
47960;SDS011;33721;48.852;9.936;2023-03-11T00:18:09;3.03;;;1.55;;
47960;SDS011;33721;48.852;9.936;2023-03-11T00:20:36;3.58;;;1.48;;
47960;SDS011;33721;48.852;9.936;2023-03-11T00:23:03;3.05;;;1.50;;
47960;SDS011;33721;48.852;9.936;2023-03-11T00:25:31;4.32;;;1.85;;
47960;SDS011;33721;48.852;9.936;2023-03-11T00:27:58;3.78;;;2.00;;
47960;SDS011;33721;48.852;9.936;2023-03-11T00:30:25;3.53;;;1.63;;
47960;SDS011;33721;48.852;9.936;2023-03-11T00:32:52;3.88;;;1.90;;
47960;SDS011;33721;48.852;9.936;2023-03-11T00:35:21;6.32;;;1.98;;
47960;SDS011;33721;48.852;9.936;2023-03-11T00:37:51;4.20;;;1.85;;
47960;SDS011;33721;48.852;9.936;2023-03-11T00:40:19;3.22;;;1.58;;
47960;SDS011;33721;48.852;9.936;2023-03-11T00:42:45;3.28;;;1.80;;
47960;SDS011;33721;48.852;9.936;2023-03-11T00:45:11;2.53;;;1.42;;
47960;SDS011;33721;48.852;9.936;2023-03-11T00:47:37;4.03;;;1.80;;
47960;SDS011;33721;48.852;9.936;2023-03-11T00:50:03;3.42;;;1.67;;
47960;SDS011;33721;48.852;9.936;2023-03-11T00:52:30;2.90;;;1.25;;
47960;SDS011;33721;48.852;9.936;2023-03-11T00:54:55;2.65;;;1.42;;
47960;SDS011;33721;48.852;9.936;2023-03-11T00:57:22;3.17;;;1.45;;
47960;SDS011;33721;48.852;9.936;2023-03-11T00:59:48;3.88;;;1.52;;
47960;SDS011;33721;48.852;9.936;2023-03-11T01:02:14;4.13;;;1.40;;
47960;SDS011;33721;48.852;9.936;2023-03-11T01:04:40;2.45;;;1.20;;
47960;SDS011;33721;48.852;9.936;2023-03-11T01:07:06;2.95;;;1.38;;
47960;SDS011;33721;48.852;9.936;2023-03-11T01:09:31;4.50;;;1.60;;
47960;SDS011;33721;48.852;9.936;2023-03-11T01:11:57;4.25;;;1.52;;
47960;SDS011;33721;48.852;9.936;2023-03-11T01:14:22;5.43;;;1.42;;
47960;SDS011;33721;48.852;9.936;2023-03-11T01:16:48;3.92;;;1.55;;
47960;SDS011;33721;48.852;9.936;2023-03-11T01:19:14;2.88;;;1.48;;
47960;SDS011;33721;48.852;9.936;2023-03-11T01:21:40;3.53;;;1.40;;
47960;SDS011;33721;48.852;9.936;2023-03-11T01:24:07;5.10;;;1.70;;
47960;SDS011;33721;48.852;9.936;2023-03-11T01:26:33;3.17;;;1.80;;
47960;SDS011;33721;48.852;9.936;2023-03-11T01:28:58;3.65;;;1.70;;
47960;SDS011;33721;48.852;9.936;2023-03-11T01:31:24;5.13;;;1.65;;
47960;SDS011;33721;48.852;9.936;2023-03-11T01:33:50;4.35;;;2.05;;
47960;SDS011;33721;48.852;9.936;2023-03-11T01:36:15;3.85;;;1.80;;
47960;SDS011;33721;48.852;9.936;2023-03-11T01:38:41;3.78;;;2.03;;
47960;SDS011;33721;48.852;9.936;2023-03-11T01:41:06;5.85;;;2.22;;
47960;SDS011;33721;48.852;9.936;2023-03-11T01:47:30;4.47;;;2.10;;
47960;SDS011;33721;48.852;9.936;2023-03-11T01:49:24;5.18;;;1.90;;
47960;SDS011;33721;48.852;9.936;2023-03-11T01:51:51;2.00;;;1.15;;
47960;SDS011;33721;48.852;9.936;2023-03-11T01:54:22;2.08;;;0.98;;
47960;SDS011;33721;48.852;9.936;2023-03-11T01:59:19;2.50;;;0.82;;
47960;SDS011;33721;48.852;9.936;2023-03-11T02:02:09;1.88;;;0.80;;
47960;SDS011;33721;48.852;9.936;2023-03-11T02:04:47;5.05;;;0.85;;
47960;SDS011;33721;48.852;9.936;2023-03-11T02:07:14;3.42;;;0.80;;
47960;SDS011;33721;48.852;9.936;2023-03-11T02:09:40;1.23;;;0.52;;
47960;SDS011;33721;48.852;9.936;2023-03-11T02:12:06;7.05;;;0.88;;
47960;SDS011;33721;48.852;9.936;2023-03-11T02:14:33;0.95;;;0.60;;
47960;SDS011;33721;48.852;9.936;2023-03-11T02:17:00;3.60;;;0.75;;
47960;SDS011;33721;48.852;9.936;2023-03-11T02:21:57;1.15;;;0.65;;
47960;SDS011;33721;48.852;9.936;2023-03-11T02:24:29;1.88;;;0.55;;
47960;SDS011;33721;48.852;9.936;2023-03-11T02:27:02;2.95;;;0.77;;
47960;SDS011;33721;48.852;9.936;2023-03-11T02:29:32;2.40;;;0.70;;
47960;SDS011;33721;48.852;9.936;2023-03-11T02:32:00;4.13;;;0.65;;
47960;SDS011;33721;48.852;9.936;2023-03-11T02:34:31;2.65;;;0.77;;
47960;SDS011;33721;48.852;9.936;2023-03-11T02:36:58;1.88;;;0.70;;
47960;SDS011;33721;48.852;9.936;2023-03-11T02:39:28;2.20;;;0.63;;
47960;SDS011;33721;48.852;9.936;2023-03-11T02:41:55;3.78;;;0.75;;
47960;SDS011;33721;48.852;9.936;2023-03-11T02:44:22;1.45;;;0.57;;
47960;SDS011;33721;48.852;9.936;2023-03-11T02:46:48;2.72;;;0.50;;
47960;SDS011;33721;48.852;9.936;2023-03-11T02:49:14;2.20;;;0.63;;
47960;SDS011;33721;48.852;9.936;2023-03-11T02:51:41;1.38;;;0.90;;
47960;SDS011;33721;48.852;9.936;2023-03-11T02:54:07;2.30;;;0.70;;
47960;SDS011;33721;48.852;9.936;2023-03-11T02:56:32;2.97;;;0.60;;
47960;SDS011;33721;48.852;9.936;2023-03-11T02:58:58;1.60;;;0.50;;
47960;SDS011;33721;48.852;9.936;2023-03-11T03:01:24;1.20;;;0.65;;
47960;SDS011;33721;48.852;9.936;2023-03-11T03:03:49;0.70;;;0.40;;
47960;SDS011;33721;48.852;9.936;2023-03-11T03:06:15;1.52;;;0.60;;
47960;SDS011;33721;48.852;9.936;2023-03-11T03:08:40;2.60;;;0.68;;
47960;SDS011;33721;48.852;9.936;2023-03-11T03:11:06;0.93;;;0.63;;
47960;SDS011;33721;48.852;9.936;2023-03-11T03:13:32;2.58;;;0.40;;
47960;SDS011;33721;48.852;9.936;2023-03-11T03:15:57;3.00;;;0.68;;
47960;SDS011;33721;48.852;9.936;2023-03-11T03:18:24;2.28;;;0.40;;
47960;SDS011;33721;48.852;9.936;2023-03-11T03:20:50;2.80;;;0.60;;
47960;SDS011;33721;48.852;9.936;2023-03-11T03:23:16;1.35;;;0.50;;
47960;SDS011;33721;48.852;9.936;2023-03-11T03:25:43;3.53;;;0.90;;
47960;SDS011;33721;48.852;9.936;2023-03-11T03:28:09;2.38;;;0.70;;
47960;SDS011;33721;48.852;9.936;2023-03-11T03:30:36;2.75;;;0.60;;
47960;SDS011;33721;48.852;9.936;2023-03-11T03:33:02;4.68;;;0.80;;
47960;SDS011;33721;48.852;9.936;2023-03-11T03:35:28;2.70;;;0.55;;
47960;SDS011;33721;48.852;9.936;2023-03-11T03:37:53;2.50;;;0.70;;
47960;SDS011;33721;48.852;9.936;2023-03-11T03:40:19;3.45;;;0.70;;
47960;SDS011;33721;48.852;9.936;2023-03-11T03:42:45;1.90;;;0.68;;
47960;SDS011;33721;48.852;9.936;2023-03-11T03:45:11;4.00;;;0.70;;
47960;SDS011;33721;48.852;9.936;2023-03-11T03:47:36;8.27;;;0.77;;
47960;SDS011;33721;48.852;9.936;2023-03-11T03:50:03;3.05;;;0.68;;
47960;SDS011;33721;48.852;9.936;2023-03-11T03:52:30;4.70;;;1.10;;
47960;SDS011;33721;48.852;9.936;2023-03-11T03:54:55;2.58;;;0.80;;
47960;SDS011;33721;48.852;9.936;2023-03-11T03:57:21;6.88;;;0.90;;
47960;SDS011;33721;48.852;9.936;2023-03-11T03:59:47;3.28;;;1.10;;
47960;SDS011;33721;48.852;9.936;2023-03-11T04:02:12;6.30;;;1.10;;
47960;SDS011;33721;48.852;9.936;2023-03-11T04:04:38;2.88;;;0.95;;
47960;SDS011;33721;48.852;9.936;2023-03-11T04:07:04;4.47;;;1.00;;
47960;SDS011;33721;48.852;9.936;2023-03-11T04:09:30;2.05;;;0.90;;
47960;SDS011;33721;48.852;9.936;2023-03-11T04:11:56;4.78;;;1.10;;
47960;SDS011;33721;48.852;9.936;2023-03-11T04:14:23;3.60;;;0.95;;
47960;SDS011;33721;48.852;9.936;2023-03-11T04:16:49;4.38;;;1.00;;
47960;SDS011;33721;48.852;9.936;2023-03-11T04:19:15;2.83;;;1.08;;
47960;SDS011;33721;48.852;9.936;2023-03-11T04:21:40;1.80;;;0.90;;
47960;SDS011;33721;48.852;9.936;2023-03-11T04:24:06;6.20;;;0.80;;
47960;SDS011;33721;48.852;9.936;2023-03-11T04:26:32;4.13;;;1.08;;
47960;SDS011;33721;48.852;9.936;2023-03-11T04:28:58;10.45;;;1.10;;
47960;SDS011;33721;48.852;9.936;2023-03-11T04:31:23;2.15;;;0.85;;
47960;SDS011;33721;48.852;9.936;2023-03-11T04:33:49;1.98;;;0.88;;
47960;SDS011;33721;48.852;9.936;2023-03-11T04:36:15;5.75;;;0.70;;
47960;SDS011;33721;48.852;9.936;2023-03-11T04:38:40;1.95;;;0.60;;
47960;SDS011;33721;48.852;9.936;2023-03-11T04:41:06;3.75;;;0.80;;
47960;SDS011;33721;48.852;9.936;2023-03-11T04:43:32;1.63;;;0.90;;
47960;SDS011;33721;48.852;9.936;2023-03-11T04:45:58;3.85;;;1.05;;
47960;SDS011;33721;48.852;9.936;2023-03-11T04:48:24;4.72;;;0.90;;
47960;SDS011;33721;48.852;9.936;2023-03-11T04:50:51;2.67;;;1.27;;
47960;SDS011;33721;48.852;9.936;2023-03-11T04:53:17;9.13;;;1.17;;
47960;SDS011;33721;48.852;9.936;2023-03-11T04:55:42;3.58;;;1.05;;
47960;SDS011;33721;48.852;9.936;2023-03-11T04:58:08;2.95;;;1.02;;
47960;SDS011;33721;48.852;9.936;2023-03-11T05:00:34;2.92;;;1.17;;
47960;SDS011;33721;48.852;9.936;2023-03-11T05:02:59;4.03;;;1.20;;
47960;SDS011;33721;48.852;9.936;2023-03-11T05:05:25;3.20;;;1.10;;
47960;SDS011;33721;48.852;9.936;2023-03-11T05:07:51;2.85;;;1.02;;
47960;SDS011;33721;48.852;9.936;2023-03-11T05:10:16;4.78;;;1.30;;
47960;SDS011;33721;48.852;9.936;2023-03-11T05:12:49;4.27;;;1.10;;
47960;SDS011;33721;48.852;9.936;2023-03-11T05:15:15;4.43;;;1.10;;
47960;SDS011;33721;48.852;9.936;2023-03-11T05:17:42;4.72;;;1.17;;
47960;SDS011;33721;48.852;9.936;2023-03-11T05:20:08;4.43;;;1.27;;
47960;SDS011;33721;48.852;9.936;2023-03-11T05:22:35;7.43;;;1.27;;
47960;SDS011;33721;48.852;9.936;2023-03-11T05:25:00;3.08;;;1.17;;
47960;SDS011;33721;48.852;9.936;2023-03-11T05:27:26;7.78;;;1.38;;
47960;SDS011;33721;48.852;9.936;2023-03-11T05:29:52;5.43;;;1.50;;
47960;SDS011;33721;48.852;9.936;2023-03-11T05:32:17;3.33;;;1.33;;
47960;SDS011;33721;48.852;9.936;2023-03-11T05:34:43;3.45;;;1.30;;
47960;SDS011;33721;48.852;9.936;2023-03-11T05:37:09;4.82;;;1.08;;
47960;SDS011;33721;48.852;9.936;2023-03-11T05:39:35;2.75;;;1.27;;
47960;SDS011;33721;48.852;9.936;2023-03-11T05:42:02;6.35;;;1.27;;
47960;SDS011;33721;48.852;9.936;2023-03-11T05:44:28;11.18;;;2.13;;
47960;SDS011;33721;48.852;9.936;2023-03-11T05:46:54;5.55;;;1.35;;
47960;SDS011;33721;48.852;9.936;2023-03-11T05:49:19;5.53;;;1.20;;
47960;SDS011;33721;48.852;9.936;2023-03-11T05:51:45;5.00;;;1.45;;
47960;SDS011;33721;48.852;9.936;2023-03-11T05:54:11;7.75;;;1.20;;
47960;SDS011;33721;48.852;9.936;2023-03-11T05:56:39;5.03;;;1.35;;
47960;SDS011;33721;48.852;9.936;2023-03-11T05:59:06;3.78;;;1.00;;
47960;SDS011;33721;48.852;9.936;2023-03-11T06:01:32;7.75;;;1.23;;
47960;SDS011;33721;48.852;9.936;2023-03-11T06:03:58;10.60;;;1.20;;
47960;SDS011;33721;48.852;9.936;2023-03-11T06:06:24;7.82;;;1.27;;
47960;SDS011;33721;48.852;9.936;2023-03-11T06:08:50;6.68;;;1.75;;
47960;SDS011;33721;48.852;9.936;2023-03-11T06:11:16;6.45;;;1.50;;
47960;SDS011;33721;48.852;9.936;2023-03-11T06:13:42;6.05;;;1.17;;
47960;SDS011;33721;48.852;9.936;2023-03-11T06:16:08;4.40;;;1.35;;
47960;SDS011;33721;48.852;9.936;2023-03-11T06:18:34;3.20;;;1.02;;
47960;SDS011;33721;48.852;9.936;2023-03-11T06:21:00;8.73;;;1.08;;
47960;SDS011;33721;48.852;9.936;2023-03-11T06:23:26;4.28;;;1.10;;
47960;SDS011;33721;48.852;9.936;2023-03-11T06:26:00;8.73;;;1.55;;
47960;SDS011;33721;48.852;9.936;2023-03-11T06:28:29;3.30;;;1.08;;
47960;SDS011;33721;48.852;9.936;2023-03-11T06:30:56;2.90;;;1.17;;
47960;SDS011;33721;48.852;9.936;2023-03-11T06:33:30;5.63;;;1.00;;
47960;SDS011;33721;48.852;9.936;2023-03-11T06:35:59;7.10;;;1.40;;
47960;SDS011;33721;48.852;9.936;2023-03-11T06:38:25;10.63;;;1.50;;
47960;SDS011;33721;48.852;9.936;2023-03-11T06:40:51;8.48;;;1.25;;
47960;SDS011;33721;48.852;9.936;2023-03-11T06:43:17;8.93;;;1.20;;
47960;SDS011;33721;48.852;9.936;2023-03-11T06:45:43;6.28;;;1.27;;
47960;SDS011;33721;48.852;9.936;2023-03-11T06:48:09;4.53;;;1.40;;
47960;SDS011;33721;48.852;9.936;2023-03-11T06:50:35;4.70;;;1.27;;
47960;SDS011;33721;48.852;9.936;2023-03-11T06:53:01;5.45;;;1.38;;
47960;SDS011;33721;48.852;9.936;2023-03-11T06:55:30;6.53;;;1.38;;
47960;SDS011;33721;48.852;9.936;2023-03-11T06:57:56;6.28;;;1.40;;
47960;SDS011;33721;48.852;9.936;2023-03-11T07:00:21;7.95;;;1.70;;
47960;SDS011;33721;48.852;9.936;2023-03-11T07:02:47;10.63;;;1.50;;
47960;SDS011;33721;48.852;9.936;2023-03-11T07:05:13;5.40;;;1.42;;
47960;SDS011;33721;48.852;9.936;2023-03-11T07:07:39;5.10;;;1.23;;
47960;SDS011;33721;48.852;9.936;2023-03-11T07:10:04;11.70;;;1.58;;
47960;SDS011;33721;48.852;9.936;2023-03-11T07:12:30;10.77;;;1.40;;
47960;SDS011;33721;48.852;9.936;2023-03-11T07:14:56;9.50;;;1.38;;
47960;SDS011;33721;48.852;9.936;2023-03-11T07:17:23;3.15;;;1.25;;
47960;SDS011;33721;48.852;9.936;2023-03-11T07:19:49;4.85;;;1.23;;
47960;SDS011;33721;48.852;9.936;2023-03-11T07:22:15;4.95;;;1.30;;
47960;SDS011;33721;48.852;9.936;2023-03-11T07:24:45;8.65;;;1.10;;
47960;SDS011;33721;48.852;9.936;2023-03-11T07:27:11;7.68;;;1.20;;
47960;SDS011;33721;48.852;9.936;2023-03-11T07:29:37;4.80;;;1.35;;
47960;SDS011;33721;48.852;9.936;2023-03-11T07:32:03;7.10;;;1.42;;
47960;SDS011;33721;48.852;9.936;2023-03-11T07:34:30;5.43;;;1.73;;
47960;SDS011;33721;48.852;9.936;2023-03-11T07:36:56;4.35;;;1.40;;
47960;SDS011;33721;48.852;9.936;2023-03-11T07:39:21;6.53;;;1.60;;
47960;SDS011;33721;48.852;9.936;2023-03-11T07:41:47;5.57;;;1.40;;
47960;SDS011;33721;48.852;9.936;2023-03-11T07:44:13;16.70;;;2.22;;
47960;SDS011;33721;48.852;9.936;2023-03-11T07:46:39;6.10;;;1.50;;
47960;SDS011;33721;48.852;9.936;2023-03-11T07:49:05;7.20;;;1.65;;
47960;SDS011;33721;48.852;9.936;2023-03-11T07:51:32;4.38;;;1.35;;
47960;SDS011;33721;48.852;9.936;2023-03-11T07:54:00;8.07;;;1.70;;
47960;SDS011;33721;48.852;9.936;2023-03-11T07:56:31;7.13;;;1.85;;
47960;SDS011;33721;48.852;9.936;2023-03-11T07:58:58;8.30;;;1.48;;
47960;SDS011;33721;48.852;9.936;2023-03-11T08:01:25;5.03;;;1.70;;
47960;SDS011;33721;48.852;9.936;2023-03-11T08:03:54;7.73;;;1.90;;
47960;SDS011;33721;48.852;9.936;2023-03-11T08:06:23;4.57;;;1.27;;
47960;SDS011;33721;48.852;9.936;2023-03-11T08:08:51;9.63;;;1.80;;
47960;SDS011;33721;48.852;9.936;2023-03-11T08:11:17;6.30;;;1.40;;
47960;SDS011;33721;48.852;9.936;2023-03-11T08:13:44;7.47;;;1.55;;
47960;SDS011;33721;48.852;9.936;2023-03-11T08:16:12;6.50;;;1.63;;
47960;SDS011;33721;48.852;9.936;2023-03-11T08:18:39;4.13;;;1.45;;
47960;SDS011;33721;48.852;9.936;2023-03-11T08:21:10;6.45;;;1.58;;
47960;SDS011;33721;48.852;9.936;2023-03-11T08:23:37;4.95;;;1.50;;
47960;SDS011;33721;48.852;9.936;2023-03-11T08:26:03;7.68;;;1.90;;
47960;SDS011;33721;48.852;9.936;2023-03-11T08:28:33;7.05;;;1.65;;
47960;SDS011;33721;48.852;9.936;2023-03-11T08:31:00;4.38;;;2.03;;
47960;SDS011;33721;48.852;9.936;2023-03-11T08:33:36;10.50;;;1.75;;
47960;SDS011;33721;48.852;9.936;2023-03-11T08:36:02;8.75;;;2.08;;
47960;SDS011;33721;48.852;9.936;2023-03-11T08:38:28;5.68;;;1.77;;
47960;SDS011;33721;48.852;9.936;2023-03-11T08:40:53;5.55;;;1.85;;
47960;SDS011;33721;48.852;9.936;2023-03-11T08:43:19;3.55;;;1.42;;
47960;SDS011;33721;48.852;9.936;2023-03-11T08:45:45;5.00;;;1.65;;
47960;SDS011;33721;48.852;9.936;2023-03-11T08:48:10;5.57;;;2.03;;
47960;SDS011;33721;48.852;9.936;2023-03-11T08:50:39;4.50;;;1.67;;
47960;SDS011;33721;48.852;9.936;2023-03-11T08:53:06;5.30;;;1.90;;
47960;SDS011;33721;48.852;9.936;2023-03-11T08:55:32;8.25;;;1.92;;
47960;SDS011;33721;48.852;9.936;2023-03-11T08:57:58;6.85;;;1.80;;
47960;SDS011;33721;48.852;9.936;2023-03-11T09:00:24;6.90;;;1.77;;
47960;SDS011;33721;48.852;9.936;2023-03-11T09:02:50;3.47;;;1.80;;
47960;SDS011;33721;48.852;9.936;2023-03-11T09:05:15;6.15;;;1.52;;
47960;SDS011;33721;48.852;9.936;2023-03-11T09:07:41;4.28;;;2.00;;
47960;SDS011;33721;48.852;9.936;2023-03-11T09:10:07;7.38;;;2.08;;
47960;SDS011;33721;48.852;9.936;2023-03-11T09:12:33;4.60;;;1.83;;
47960;SDS011;33721;48.852;9.936;2023-03-11T09:14:58;4.50;;;1.90;;
47960;SDS011;33721;48.852;9.936;2023-03-11T09:17:24;8.18;;;1.98;;
47960;SDS011;33721;48.852;9.936;2023-03-11T09:19:50;7.13;;;2.55;;
47960;SDS011;33721;48.852;9.936;2023-03-11T09:22:16;9.32;;;2.08;;
47960;SDS011;33721;48.852;9.936;2023-03-11T09:24:41;7.28;;;2.15;;
47960;SDS011;33721;48.852;9.936;2023-03-11T09:27:07;10.73;;;2.38;;
47960;SDS011;33721;48.852;9.936;2023-03-11T09:29:33;5.75;;;2.08;;
47960;SDS011;33721;48.852;9.936;2023-03-11T09:31:59;6.03;;;2.40;;
47960;SDS011;33721;48.852;9.936;2023-03-11T09:34:24;4.65;;;1.67;;
47960;SDS011;33721;48.852;9.936;2023-03-11T09:36:50;6.13;;;1.75;;
47960;SDS011;33721;48.852;9.936;2023-03-11T09:39:15;5.22;;;2.20;;
47960;SDS011;33721;48.852;9.936;2023-03-11T09:44:28;4.97;;;2.00;;
47960;SDS011;33721;48.852;9.936;2023-03-11T09:52:29;5.32;;;1.35;;
47960;SDS011;33721;48.852;9.936;2023-03-11T09:55:04;3.22;;;1.33;;
47960;SDS011;33721;48.852;9.936;2023-03-11T09:57:35;3.35;;;1.45;;
47960;SDS011;33721;48.852;9.936;2023-03-11T10:00:03;4.90;;;1.27;;
47960;SDS011;33721;48.852;9.936;2023-03-11T10:02:30;4.68;;;1.40;;
47960;SDS011;33721;48.852;9.936;2023-03-11T10:07:34;5.70;;;1.70;;
47960;SDS011;33721;48.852;9.936;2023-03-11T10:10:04;3.67;;;1.38;;
47960;SDS011;33721;48.852;9.936;2023-03-11T10:15:28;6.43;;;1.30;;
47960;SDS011;33721;48.852;9.936;2023-03-11T10:18:13;5.20;;;1.85;;
47960;SDS011;33721;48.852;9.936;2023-03-11T10:26:19;5.57;;;2.10;;
47960;SDS011;33721;48.852;9.936;2023-03-11T10:28:55;4.60;;;1.88;;
47960;SDS011;33721;48.852;9.936;2023-03-11T10:31:39;10.73;;;2.80;;
47960;SDS011;33721;48.852;9.936;2023-03-11T10:34:19;10.60;;;2.42;;
47960;SDS011;33721;48.852;9.936;2023-03-11T10:37:01;7.32;;;2.05;;
47960;SDS011;33721;48.852;9.936;2023-03-11T10:39:34;5.38;;;2.15;;
47960;SDS011;33721;48.852;9.936;2023-03-11T10:42:04;7.55;;;1.83;;
47960;SDS011;33721;48.852;9.936;2023-03-11T10:44:35;8.25;;;2.38;;
47960;SDS011;33721;48.852;9.936;2023-03-11T10:47:03;6.47;;;2.30;;
47960;SDS011;33721;48.852;9.936;2023-03-11T10:49:29;9.25;;;2.40;;
47960;SDS011;33721;48.852;9.936;2023-03-11T10:51:55;6.30;;;2.47;;
47960;SDS011;33721;48.852;9.936;2023-03-11T10:57:08;5.43;;;1.77;;
47960;SDS011;33721;48.852;9.936;2023-03-11T10:59:46;6.45;;;1.40;;
47960;SDS011;33721;48.852;9.936;2023-03-11T11:02:20;3.47;;;1.58;;
47960;SDS011;33721;48.852;9.936;2023-03-11T11:05:21;8.27;;;1.80;;
47960;SDS011;33721;48.852;9.936;2023-03-11T11:08:00;7.47;;;1.90;;
47960;SDS011;33721;48.852;9.936;2023-03-11T11:10:37;4.97;;;1.60;;
47960;SDS011;33721;48.852;9.936;2023-03-11T11:13:17;9.00;;;1.88;;
47960;SDS011;33721;48.852;9.936;2023-03-11T11:18:32;4.43;;;1.73;;
47960;SDS011;33721;48.852;9.936;2023-03-11T11:21:02;4.97;;;1.60;;
47960;SDS011;33721;48.852;9.936;2023-03-11T11:23:41;6.57;;;1.70;;
47960;SDS011;33721;48.852;9.936;2023-03-11T11:26:15;4.25;;;1.70;;
47960;SDS011;33721;48.852;9.936;2023-03-11T11:28:51;7.82;;;1.85;;
47960;SDS011;33721;48.852;9.936;2023-03-11T11:31:31;5.38;;;2.10;;
47960;SDS011;33721;48.852;9.936;2023-03-11T11:33:57;5.18;;;1.88;;
47960;SDS011;33721;48.852;9.936;2023-03-11T11:36:24;4.28;;;1.85;;
47960;SDS011;33721;48.852;9.936;2023-03-11T11:38:56;5.78;;;1.70;;
47960;SDS011;33721;48.852;9.936;2023-03-11T11:41:24;5.35;;;1.88;;
47960;SDS011;33721;48.852;9.936;2023-03-11T11:43:52;4.82;;;1.60;;
47960;SDS011;33721;48.852;9.936;2023-03-11T11:46:20;7.32;;;1.60;;
47960;SDS011;33721;48.852;9.936;2023-03-11T11:51:32;4.93;;;1.67;;
47960;SDS011;33721;48.852;9.936;2023-03-11T11:54:08;9.88;;;1.90;;
47960;SDS011;33721;48.852;9.936;2023-03-11T11:56:41;5.97;;;1.30;;
47960;SDS011;33721;48.852;9.936;2023-03-11T11:59:18;10.02;;;1.98;;
47960;SDS011;33721;48.852;9.936;2023-03-11T12:01:54;6.28;;;1.42;;
47960;SDS011;33721;48.852;9.936;2023-03-11T12:12:40;6.00;;;1.65;;
47960;SDS011;33721;48.852;9.936;2023-03-11T12:15:28;6.50;;;1.63;;
47960;SDS011;33721;48.852;9.936;2023-03-11T12:18:03;4.88;;;1.88;;
47960;SDS011;33721;48.852;9.936;2023-03-11T12:26:23;6.80;;;1.35;;
47960;SDS011;33721;48.852;9.936;2023-03-11T12:28:52;3.97;;;1.20;;
47960;SDS011;33721;48.852;9.936;2023-03-11T12:31:23;3.13;;;1.45;;
47960;SDS011;33721;48.852;9.936;2023-03-11T12:33:55;2.67;;;1.42;;
47960;SDS011;33721;48.852;9.936;2023-03-11T12:36:32;4.07;;;1.45;;
47960;SDS011;33721;48.852;9.936;2023-03-11T12:39:01;3.55;;;1.45;;
47960;SDS011;33721;48.852;9.936;2023-03-11T12:44:01;3.20;;;1.20;;
47960;SDS011;33721;48.852;9.936;2023-03-11T12:49:26;4.90;;;1.38;;
47960;SDS011;33721;48.852;9.936;2023-03-11T12:51:59;1.75;;;1.20;;
47960;SDS011;33721;48.852;9.936;2023-03-11T13:05:29;2.67;;;1.40;;
47960;SDS011;33721;48.852;9.936;2023-03-11T13:08:03;5.05;;;1.75;;
47960;SDS011;33721;48.852;9.936;2023-03-11T13:10:56;9.25;;;1.50;;
47960;SDS011;33721;48.852;9.936;2023-03-11T13:15:54;5.45;;;1.55;;
47960;SDS011;33721;48.852;9.936;2023-03-11T13:18:29;9.18;;;1.70;;
47960;SDS011;33721;48.852;9.936;2023-03-11T13:21:00;4.43;;;1.20;;
47960;SDS011;33721;48.852;9.936;2023-03-11T13:34:12;6.72;;;1.52;;
47960;SDS011;33721;48.852;9.936;2023-03-11T13:36:48;4.82;;;1.35;;
47960;SDS011;33721;48.852;9.936;2023-03-11T13:42:34;3.88;;;1.30;;
47960;SDS011;33721;48.852;9.936;2023-03-11T13:45:36;8.10;;;1.30;;
47960;SDS011;33721;48.852;9.936;2023-03-11T13:48:12;3.97;;;1.20;;
47960;SDS011;33721;48.852;9.936;2023-03-11T13:50:42;3.88;;;1.30;;
47960;SDS011;33721;48.852;9.936;2023-03-11T13:53:29;3.92;;;1.27;;
47960;SDS011;33721;48.852;9.936;2023-03-11T13:55:58;4.55;;;1.00;;
47960;SDS011;33721;48.852;9.936;2023-03-11T13:58:25;5.45;;;1.30;;
47960;SDS011;33721;48.852;9.936;2023-03-11T14:01:01;4.88;;;1.40;;
47960;SDS011;33721;48.852;9.936;2023-03-11T14:03:32;1.98;;;0.98;;
47960;SDS011;33721;48.852;9.936;2023-03-11T14:06:05;5.72;;;1.33;;
47960;SDS011;33721;48.852;9.936;2023-03-11T14:08:33;4.57;;;1.50;;
47960;SDS011;33721;48.852;9.936;2023-03-11T14:13:44;4.93;;;1.30;;
47960;SDS011;33721;48.852;9.936;2023-03-11T14:16:21;6.77;;;2.07;;
47960;SDS011;33721;48.852;9.936;2023-03-11T14:19:01;6.82;;;1.48;;
47960;SDS011;33721;48.852;9.936;2023-03-11T14:21:28;6.18;;;1.35;;
47960;SDS011;33721;48.852;9.936;2023-03-11T14:23:55;4.90;;;1.25;;
47960;SDS011;33721;48.852;9.936;2023-03-11T14:26:22;5.10;;;1.23;;
47960;SDS011;33721;48.852;9.936;2023-03-11T14:28:52;7.07;;;1.17;;
47960;SDS011;33721;48.852;9.936;2023-03-11T14:31:36;8.00;;;1.42;;
47960;SDS011;33721;48.852;9.936;2023-03-11T14:34:18;6.07;;;1.85;;
47960;SDS011;33721;48.852;9.936;2023-03-11T14:39:31;6.20;;;1.20;;
47960;SDS011;33721;48.852;9.936;2023-03-11T14:44:29;6.57;;;1.00;;
47960;SDS011;33721;48.852;9.936;2023-03-11T14:47:09;5.00;;;1.55;;
47960;SDS011;33721;48.852;9.936;2023-03-11T14:49:41;6.18;;;1.50;;
47960;SDS011;33721;48.852;9.936;2023-03-11T14:52:12;3.28;;;1.33;;
47960;SDS011;33721;48.852;9.936;2023-03-11T14:54:47;5.93;;;1.30;;
47960;SDS011;33721;48.852;9.936;2023-03-11T15:00:05;5.22;;;1.30;;
47960;SDS011;33721;48.852;9.936;2023-03-11T15:02:53;4.07;;;1.20;;
47960;SDS011;33721;48.852;9.936;2023-03-11T15:05:22;6.88;;;1.10;;
47960;SDS011;33721;48.852;9.936;2023-03-11T15:07:56;5.38;;;1.33;;
47960;SDS011;33721;48.852;9.936;2023-03-11T15:10:24;3.47;;;1.38;;
47960;SDS011;33721;48.852;9.936;2023-03-11T15:12:50;3.40;;;1.17;;
47960;SDS011;33721;48.852;9.936;2023-03-11T15:15:27;3.50;;;1.30;;
47960;SDS011;33721;48.852;9.936;2023-03-11T15:17:54;6.43;;;1.35;;
47960;SDS011;33721;48.852;9.936;2023-03-11T15:20:34;5.55;;;1.23;;
47960;SDS011;33721;48.852;9.936;2023-03-11T15:23:02;4.13;;;1.20;;
47960;SDS011;33721;48.852;9.936;2023-03-11T15:25:33;2.88;;;1.40;;
47960;SDS011;33721;48.852;9.936;2023-03-11T15:33:46;3.30;;;1.00;;
47960;SDS011;33721;48.852;9.936;2023-03-11T15:41:37;3.10;;;1.20;;
47960;SDS011;33721;48.852;9.936;2023-03-11T15:44:04;3.92;;;1.52;;
47960;SDS011;33721;48.852;9.936;2023-03-11T15:46:39;6.68;;;1.80;;
47960;SDS011;33721;48.852;9.936;2023-03-11T15:49:08;8.57;;;1.98;;
47960;SDS011;33721;48.852;9.936;2023-03-11T15:51:37;4.72;;;1.40;;
47960;SDS011;33721;48.852;9.936;2023-03-11T15:54:03;6.63;;;1.30;;
47960;SDS011;33721;48.852;9.936;2023-03-11T15:56:28;7.50;;;1.73;;
47960;SDS011;33721;48.852;9.936;2023-03-11T15:58:57;4.13;;;1.27;;
47960;SDS011;33721;48.852;9.936;2023-03-11T16:01:23;6.07;;;1.45;;
47960;SDS011;33721;48.852;9.936;2023-03-11T16:03:52;6.68;;;1.85;;
47960;SDS011;33721;48.852;9.936;2023-03-11T16:06:18;8.52;;;1.48;;
47960;SDS011;33721;48.852;9.936;2023-03-11T16:08:44;8.93;;;1.40;;
47960;SDS011;33721;48.852;9.936;2023-03-11T16:11:11;6.65;;;2.30;;
47960;SDS011;33721;48.852;9.936;2023-03-11T16:13:37;4.40;;;1.17;;
47960;SDS011;33721;48.852;9.936;2023-03-11T16:16:03;5.05;;;1.15;;
47960;SDS011;33721;48.852;9.936;2023-03-11T16:18:29;3.03;;;1.15;;
47960;SDS011;33721;48.852;9.936;2023-03-11T16:20:54;4.88;;;1.40;;
47960;SDS011;33721;48.852;9.936;2023-03-11T16:23:24;7.15;;;1.05;;
47960;SDS011;33721;48.852;9.936;2023-03-11T16:25:51;5.25;;;1.00;;
47960;SDS011;33721;48.852;9.936;2023-03-11T16:28:21;5.63;;;1.25;;
47960;SDS011;33721;48.852;9.936;2023-03-11T16:30:47;2.17;;;1.00;;
47960;SDS011;33721;48.852;9.936;2023-03-11T16:33:17;3.78;;;1.13;;
47960;SDS011;33721;48.852;9.936;2023-03-11T16:35:42;1.98;;;0.80;;
47960;SDS011;33721;48.852;9.936;2023-03-11T16:38:08;6.40;;;1.20;;
47960;SDS011;33721;48.852;9.936;2023-03-11T16:40:34;4.80;;;1.27;;